sensor_id;sensor_type;location;lat;lon;timestamp;temperature;humidity
30999;DHT22;20549;50.042;8.968;2022-09-12T00:00:03;15.70;95.20
30999;DHT22;20549;50.042;8.968;2022-09-12T00:02:29;15.70;95.30
30999;DHT22;20549;50.042;8.968;2022-09-12T00:04:56;15.70;95.40
30999;DHT22;20549;50.042;8.968;2022-09-12T00:07:22;15.70;95.50
30999;DHT22;20549;50.042;8.968;2022-09-12T00:09:49;15.70;95.80
30999;DHT22;20549;50.042;8.968;2022-09-12T00:12:15;15.70;96.00
30999;DHT22;20549;50.042;8.968;2022-09-12T00:14:42;15.70;96.10
30999;DHT22;20549;50.042;8.968;2022-09-12T00:17:09;15.70;96.10
30999;DHT22;20549;50.042;8.968;2022-09-12T00:19:35;15.70;96.10
30999;DHT22;20549;50.042;8.968;2022-09-12T00:22:02;15.70;96.00
30999;DHT22;20549;50.042;8.968;2022-09-12T00:24:28;15.70;96.10
30999;DHT22;20549;50.042;8.968;2022-09-12T00:26:55;15.60;96.00
30999;DHT22;20549;50.042;8.968;2022-09-12T00:29:21;15.60;96.20
30999;DHT22;20549;50.042;8.968;2022-09-12T00:31:48;15.60;96.10
30999;DHT22;20549;50.042;8.968;2022-09-12T00:34:15;15.60;96.20
30999;DHT22;20549;50.042;8.968;2022-09-12T00:36:41;15.60;96.10
30999;DHT22;20549;50.042;8.968;2022-09-12T00:39:09;15.60;96.10
30999;DHT22;20549;50.042;8.968;2022-09-12T00:41:36;15.50;96.00
30999;DHT22;20549;50.042;8.968;2022-09-12T00:46:50;15.40;96.20
30999;DHT22;20549;50.042;8.968;2022-09-12T00:51:50;15.30;96.10
30999;DHT22;20549;50.042;8.968;2022-09-12T00:54:15;15.30;96.10
30999;DHT22;20549;50.042;8.968;2022-09-12T00:56:41;15.30;96.30
30999;DHT22;20549;50.042;8.968;2022-09-12T00:59:11;15.20;96.40
30999;DHT22;20549;50.042;8.968;2022-09-12T01:01:37;15.20;96.40
30999;DHT22;20549;50.042;8.968;2022-09-12T01:04:03;15.20;96.50
30999;DHT22;20549;50.042;8.968;2022-09-12T01:06:34;15.10;96.50
30999;DHT22;20549;50.042;8.968;2022-09-12T01:08:57;15.10;96.70
30999;DHT22;20549;50.042;8.968;2022-09-12T01:11:23;15.10;96.80
30999;DHT22;20549;50.042;8.968;2022-09-12T01:13:50;15.00;96.70
30999;DHT22;20549;50.042;8.968;2022-09-12T01:16:16;15.00;96.90
30999;DHT22;20549;50.042;8.968;2022-09-12T01:24:24;14.90;97.00
30999;DHT22;20549;50.042;8.968;2022-09-12T01:32:34;14.80;96.80
30999;DHT22;20549;50.042;8.968;2022-09-12T01:35:12;14.70;96.70
30999;DHT22;20549;50.042;8.968;2022-09-12T01:38:30;14.70;96.80
30999;DHT22;20549;50.042;8.968;2022-09-12T01:40:17;14.60;96.80
30999;DHT22;20549;50.042;8.968;2022-09-12T01:46:05;14.60;97.20
30999;DHT22;20549;50.042;8.968;2022-09-12T01:48:01;14.50;97.30
30999;DHT22;20549;50.042;8.968;2022-09-12T01:50:27;14.50;97.40
30999;DHT22;20549;50.042;8.968;2022-09-12T01:53:00;14.50;97.70
30999;DHT22;20549;50.042;8.968;2022-09-12T02:03:25;14.50;98.70
30999;DHT22;20549;50.042;8.968;2022-09-12T02:05:59;14.40;98.90
30999;DHT22;20549;50.042;8.968;2022-09-12T02:08:43;14.50;98.80
30999;DHT22;20549;50.042;8.968;2022-09-12T02:10:58;14.50;99.20
30999;DHT22;20549;50.042;8.968;2022-09-12T02:13:28;14.50;99.30
30999;DHT22;20549;50.042;8.968;2022-09-12T02:15:52;14.50;99.30
30999;DHT22;20549;50.042;8.968;2022-09-12T02:18:18;14.50;99.40
30999;DHT22;20549;50.042;8.968;2022-09-12T02:20:45;14.50;99.50
30999;DHT22;20549;50.042;8.968;2022-09-12T02:23:19;14.50;99.70
30999;DHT22;20549;50.042;8.968;2022-09-12T02:25:44;14.50;99.70
30999;DHT22;20549;50.042;8.968;2022-09-12T02:28:14;14.60;99.80
30999;DHT22;20549;50.042;8.968;2022-09-12T02:31:12;14.60;99.80
30999;DHT22;20549;50.042;8.968;2022-09-12T02:36:36;14.60;99.50
30999;DHT22;20549;50.042;8.968;2022-09-12T02:39:00;14.60;99.40
30999;DHT22;20549;50.042;8.968;2022-09-12T02:41:27;14.50;99.30
30999;DHT22;20549;50.042;8.968;2022-09-12T02:43:53;14.50;99.30
30999;DHT22;20549;50.042;8.968;2022-09-12T02:46:35;14.50;99.40
30999;DHT22;20549;50.042;8.968;2022-09-12T02:48:58;14.50;99.40
30999;DHT22;20549;50.042;8.968;2022-09-12T02:51:25;14.50;99.40
30999;DHT22;20549;50.042;8.968;2022-09-12T02:53:52;14.40;99.50
30999;DHT22;20549;50.042;8.968;2022-09-12T02:56:25;14.40;99.60
30999;DHT22;20549;50.042;8.968;2022-09-12T02:58:50;14.40;99.60
30999;DHT22;20549;50.042;8.968;2022-09-12T03:02:05;14.40;99.60
30999;DHT22;20549;50.042;8.968;2022-09-12T03:06:36;14.30;99.60
30999;DHT22;20549;50.042;8.968;2022-09-12T03:09:11;14.30;99.70
30999;DHT22;20549;50.042;8.968;2022-09-12T03:12:22;14.30;99.70
30999;DHT22;20549;50.042;8.968;2022-09-12T03:22:38;14.20;99.70
30999;DHT22;20549;50.042;8.968;2022-09-12T03:27:50;14.10;99.80
30999;DHT22;20549;50.042;8.968;2022-09-12T03:30:12;14.10;99.80
30999;DHT22;20549;50.042;8.968;2022-09-12T03:32:43;14.10;99.90
30999;DHT22;20549;50.042;8.968;2022-09-12T03:35:05;14.00;99.90
30999;DHT22;20549;50.042;8.968;2022-09-12T03:37:32;14.00;99.90
30999;DHT22;20549;50.042;8.968;2022-09-12T03:39:58;14.00;99.90
30999;DHT22;20549;50.042;8.968;2022-09-12T03:42:25;14.00;99.90
30999;DHT22;20549;50.042;8.968;2022-09-12T03:44:51;14.00;99.90
30999;DHT22;20549;50.042;8.968;2022-09-12T03:47:18;14.00;99.90
30999;DHT22;20549;50.042;8.968;2022-09-12T03:49:45;14.00;99.90
30999;DHT22;20549;50.042;8.968;2022-09-12T03:52:11;14.00;99.90
30999;DHT22;20549;50.042;8.968;2022-09-12T03:54:38;14.00;99.90
30999;DHT22;20549;50.042;8.968;2022-09-12T03:57:04;14.00;99.90
30999;DHT22;20549;50.042;8.968;2022-09-12T03:59:31;14.00;99.90
30999;DHT22;20549;50.042;8.968;2022-09-12T04:01:58;14.00;99.90
30999;DHT22;20549;50.042;8.968;2022-09-12T04:04:24;14.00;99.90
30999;DHT22;20549;50.042;8.968;2022-09-12T04:06:51;14.00;99.90
30999;DHT22;20549;50.042;8.968;2022-09-12T04:09:17;14.00;99.90
30999;DHT22;20549;50.042;8.968;2022-09-12T04:11:44;14.00;99.90
30999;DHT22;20549;50.042;8.968;2022-09-12T04:14:11;14.00;99.90
30999;DHT22;20549;50.042;8.968;2022-09-12T04:16:37;13.90;99.90
30999;DHT22;20549;50.042;8.968;2022-09-12T04:19:04;13.90;99.90
30999;DHT22;20549;50.042;8.968;2022-09-12T04:21:30;13.90;99.90
30999;DHT22;20549;50.042;8.968;2022-09-12T04:23:57;13.90;99.90
30999;DHT22;20549;50.042;8.968;2022-09-12T04:26:23;13.90;99.90
30999;DHT22;20549;50.042;8.968;2022-09-12T04:28:52;13.90;99.90
30999;DHT22;20549;50.042;8.968;2022-09-12T04:31:17;13.90;99.90
30999;DHT22;20549;50.042;8.968;2022-09-12T04:33:44;13.90;99.90
30999;DHT22;20549;50.042;8.968;2022-09-12T04:36:11;13.90;99.90
30999;DHT22;20549;50.042;8.968;2022-09-12T04:38:37;13.90;99.90
30999;DHT22;20549;50.042;8.968;2022-09-12T04:41:10;13.90;99.90
30999;DHT22;20549;50.042;8.968;2022-09-12T04:43:36;13.90;99.90
30999;DHT22;20549;50.042;8.968;2022-09-12T04:46:06;14.00;99.90
30999;DHT22;20549;50.042;8.968;2022-09-12T04:48:32;14.00;99.90
30999;DHT22;20549;50.042;8.968;2022-09-12T04:51:12;14.00;99.90
30999;DHT22;20549;50.042;8.968;2022-09-12T04:53:38;14.00;99.90
30999;DHT22;20549;50.042;8.968;2022-09-12T04:56:05;14.00;99.90
30999;DHT22;20549;50.042;8.968;2022-09-12T04:58:31;14.00;99.90
30999;DHT22;20549;50.042;8.968;2022-09-12T05:01:07;14.00;99.90
30999;DHT22;20549;50.042;8.968;2022-09-12T05:03:33;14.00;99.90
30999;DHT22;20549;50.042;8.968;2022-09-12T05:06:02;14.00;99.90
30999;DHT22;20549;50.042;8.968;2022-09-12T05:08:28;13.90;99.90
30999;DHT22;20549;50.042;8.968;2022-09-12T05:10:55;13.90;99.90
30999;DHT22;20549;50.042;8.968;2022-09-12T05:13:21;13.90;99.90
30999;DHT22;20549;50.042;8.968;2022-09-12T05:15:55;13.90;99.90
30999;DHT22;20549;50.042;8.968;2022-09-12T05:18:20;13.90;99.90
30999;DHT22;20549;50.042;8.968;2022-09-12T05:20:47;13.90;99.90
30999;DHT22;20549;50.042;8.968;2022-09-12T05:23:13;14.00;99.90
30999;DHT22;20549;50.042;8.968;2022-09-12T05:25:46;14.00;99.90
30999;DHT22;20549;50.042;8.968;2022-09-12T05:28:06;14.10;99.90
30999;DHT22;20549;50.042;8.968;2022-09-12T05:30:33;14.20;99.90
30999;DHT22;20549;50.042;8.968;2022-09-12T05:33:00;14.30;99.90
30999;DHT22;20549;50.042;8.968;2022-09-12T05:35:26;14.50;99.90
30999;DHT22;20549;50.042;8.968;2022-09-12T05:37:53;14.80;99.90
30999;DHT22;20549;50.042;8.968;2022-09-12T05:40:19;15.10;99.90
30999;DHT22;20549;50.042;8.968;2022-09-12T05:42:46;15.40;99.90
30999;DHT22;20549;50.042;8.968;2022-09-12T05:45:13;15.80;99.90
30999;DHT22;20549;50.042;8.968;2022-09-12T05:47:39;16.20;99.90
30999;DHT22;20549;50.042;8.968;2022-09-12T05:50:06;16.60;99.90
30999;DHT22;20549;50.042;8.968;2022-09-12T05:52:32;17.00;99.90
30999;DHT22;20549;50.042;8.968;2022-09-12T05:54:59;17.50;99.90
30999;DHT22;20549;50.042;8.968;2022-09-12T05:57:26;17.90;99.90
30999;DHT22;20549;50.042;8.968;2022-09-12T05:59:52;18.40;99.90
30999;DHT22;20549;50.042;8.968;2022-09-12T06:02:19;18.90;99.90
30999;DHT22;20549;50.042;8.968;2022-09-12T06:04:45;19.40;99.90
30999;DHT22;20549;50.042;8.968;2022-09-12T06:07:12;19.80;99.90
30999;DHT22;20549;50.042;8.968;2022-09-12T06:09:39;20.30;99.90
30999;DHT22;20549;50.042;8.968;2022-09-12T06:12:05;20.70;99.90
30999;DHT22;20549;50.042;8.968;2022-09-12T06:14:32;21.10;99.30
30999;DHT22;20549;50.042;8.968;2022-09-12T06:16:58;21.60;98.20
30999;DHT22;20549;50.042;8.968;2022-09-12T06:19:25;22.00;97.00
30999;DHT22;20549;50.042;8.968;2022-09-12T06:21:51;22.50;95.70
30999;DHT22;20549;50.042;8.968;2022-09-12T06:24:20;23.00;94.20
30999;DHT22;20549;50.042;8.968;2022-09-12T06:26:45;23.50;93.30
30999;DHT22;20549;50.042;8.968;2022-09-12T06:29:11;24.00;92.00
30999;DHT22;20549;50.042;8.968;2022-09-12T06:31:38;24.50;90.20
30999;DHT22;20549;50.042;8.968;2022-09-12T06:34:05;24.90;87.40
30999;DHT22;20549;50.042;8.968;2022-09-12T06:36:41;25.40;85.00
30999;DHT22;20549;50.042;8.968;2022-09-12T06:39:09;25.90;82.60
30999;DHT22;20549;50.042;8.968;2022-09-12T06:41:33;26.30;80.60
30999;DHT22;20549;50.042;8.968;2022-09-12T06:43:59;26.80;78.80
30999;DHT22;20549;50.042;8.968;2022-09-12T06:46:26;27.20;76.20
30999;DHT22;20549;50.042;8.968;2022-09-12T06:48:56;27.60;73.80
30999;DHT22;20549;50.042;8.968;2022-09-12T06:51:19;28.00;72.60
30999;DHT22;20549;50.042;8.968;2022-09-12T06:53:46;28.30;71.30
30999;DHT22;20549;50.042;8.968;2022-09-12T06:56:16;28.70;69.90
30999;DHT22;20549;50.042;8.968;2022-09-12T06:58:42;29.00;68.30
30999;DHT22;20549;50.042;8.968;2022-09-12T07:01:09;29.40;68.00
30999;DHT22;20549;50.042;8.968;2022-09-12T07:03:35;29.80;67.20
30999;DHT22;20549;50.042;8.968;2022-09-12T07:06:05;30.10;66.50
30999;DHT22;20549;50.042;8.968;2022-09-12T07:08:31;30.50;65.30
30999;DHT22;20549;50.042;8.968;2022-09-12T07:10:58;30.90;64.10
30999;DHT22;20549;50.042;8.968;2022-09-12T07:13:24;31.30;62.90
30999;DHT22;20549;50.042;8.968;2022-09-12T07:15:51;31.70;62.10
30999;DHT22;20549;50.042;8.968;2022-09-12T07:18:17;32.20;61.20
30999;DHT22;20549;50.042;8.968;2022-09-12T07:20:44;32.60;60.20
30999;DHT22;20549;50.042;8.968;2022-09-12T07:23:10;32.90;59.10
30999;DHT22;20549;50.042;8.968;2022-09-12T07:25:37;33.30;58.60
30999;DHT22;20549;50.042;8.968;2022-09-12T07:28:04;33.70;58.00
30999;DHT22;20549;50.042;8.968;2022-09-12T07:30:30;34.10;57.10
30999;DHT22;20549;50.042;8.968;2022-09-12T07:32:57;34.50;56.10
30999;DHT22;20549;50.042;8.968;2022-09-12T07:35:23;34.80;55.20
30999;DHT22;20549;50.042;8.968;2022-09-12T07:37:50;35.10;54.60
30999;DHT22;20549;50.042;8.968;2022-09-12T07:40:17;35.40;54.00
30999;DHT22;20549;50.042;8.968;2022-09-12T07:42:43;35.70;53.30
30999;DHT22;20549;50.042;8.968;2022-09-12T07:45:10;36.00;52.90
30999;DHT22;20549;50.042;8.968;2022-09-12T07:47:36;36.20;52.60
30999;DHT22;20549;50.042;8.968;2022-09-12T07:50:03;36.50;51.90
30999;DHT22;20549;50.042;8.968;2022-09-12T07:52:30;36.70;50.70
30999;DHT22;20549;50.042;8.968;2022-09-12T07:54:56;36.90;50.80
30999;DHT22;20549;50.042;8.968;2022-09-12T07:57:23;37.10;50.20
30999;DHT22;20549;50.042;8.968;2022-09-12T07:59:49;37.30;49.60
30999;DHT22;20549;50.042;8.968;2022-09-12T08:02:16;37.50;49.30
30999;DHT22;20549;50.042;8.968;2022-09-12T08:04:43;37.70;49.00
30999;DHT22;20549;50.042;8.968;2022-09-12T08:07:09;37.90;48.90
30999;DHT22;20549;50.042;8.968;2022-09-12T08:09:36;38.10;48.40
30999;DHT22;20549;50.042;8.968;2022-09-12T08:12:02;38.40;48.00
30999;DHT22;20549;50.042;8.968;2022-09-12T08:14:29;38.60;47.10
30999;DHT22;20549;50.042;8.968;2022-09-12T08:16:55;38.70;46.40
30999;DHT22;20549;50.042;8.968;2022-09-12T08:19:22;38.80;46.10
30999;DHT22;20549;50.042;8.968;2022-09-12T08:21:49;39.00;45.80
30999;DHT22;20549;50.042;8.968;2022-09-12T08:24:15;39.10;45.50
30999;DHT22;20549;50.042;8.968;2022-09-12T08:26:42;39.20;45.30
30999;DHT22;20549;50.042;8.968;2022-09-12T08:29:08;39.40;44.50
30999;DHT22;20549;50.042;8.968;2022-09-12T08:31:35;39.50;44.60
30999;DHT22;20549;50.042;8.968;2022-09-12T08:34:05;39.70;44.10
30999;DHT22;20549;50.042;8.968;2022-09-12T08:36:28;39.90;44.00
30999;DHT22;20549;50.042;8.968;2022-09-12T08:38:58;40.10;43.60
30999;DHT22;20549;50.042;8.968;2022-09-12T08:41:38;40.30;43.30
30999;DHT22;20549;50.042;8.968;2022-09-12T08:44:09;40.50;43.00
30999;DHT22;20549;50.042;8.968;2022-09-12T08:47:06;40.70;42.70
30999;DHT22;20549;50.042;8.968;2022-09-12T08:52:10;40.90;41.90
30999;DHT22;20549;50.042;8.968;2022-09-12T08:54:33;41.00;41.20
30999;DHT22;20549;50.042;8.968;2022-09-12T08:57:03;41.00;40.40
30999;DHT22;20549;50.042;8.968;2022-09-12T08:59:34;41.00;40.00
30999;DHT22;20549;50.042;8.968;2022-09-12T09:01:58;40.90;39.60
30999;DHT22;20549;50.042;8.968;2022-09-12T09:04:48;40.80;39.60
30999;DHT22;20549;50.042;8.968;2022-09-12T09:09:52;40.50;39.30
30999;DHT22;20549;50.042;8.968;2022-09-12T09:12:22;40.30;39.00
30999;DHT22;20549;50.042;8.968;2022-09-12T09:18:36;39.80;38.80
30999;DHT22;20549;50.042;8.968;2022-09-12T09:20:44;39.50;39.00
30999;DHT22;20549;50.042;8.968;2022-09-12T09:23:34;39.20;38.80
30999;DHT22;20549;50.042;8.968;2022-09-12T09:26:00;39.00;38.60
30999;DHT22;20549;50.042;8.968;2022-09-12T09:30:52;38.50;38.70
30999;DHT22;20549;50.042;8.968;2022-09-12T09:33:22;38.20;38.80
30999;DHT22;20549;50.042;8.968;2022-09-12T09:36:11;37.90;38.80
30999;DHT22;20549;50.042;8.968;2022-09-12T09:38:42;37.70;38.90
30999;DHT22;20549;50.042;8.968;2022-09-12T09:41:23;37.40;38.80
30999;DHT22;20549;50.042;8.968;2022-09-12T09:43:47;37.20;39.10
30999;DHT22;20549;50.042;8.968;2022-09-12T09:46:14;36.90;39.30
30999;DHT22;20549;50.042;8.968;2022-09-12T09:48:41;36.70;39.10
30999;DHT22;20549;50.042;8.968;2022-09-12T09:51:07;36.40;39.20
30999;DHT22;20549;50.042;8.968;2022-09-12T09:53:39;36.30;39.30
30999;DHT22;20549;50.042;8.968;2022-09-12T09:56:08;36.10;39.40
30999;DHT22;20549;50.042;8.968;2022-09-12T09:58:33;35.90;39.60
30999;DHT22;20549;50.042;8.968;2022-09-12T10:00:59;35.70;39.30
30999;DHT22;20549;50.042;8.968;2022-09-12T10:03:32;35.50;39.10
30999;DHT22;20549;50.042;8.968;2022-09-12T10:06:01;35.30;38.80
30999;DHT22;20549;50.042;8.968;2022-09-12T10:08:28;35.00;38.90
30999;DHT22;20549;50.042;8.968;2022-09-12T10:13:42;34.40;39.20
30999;DHT22;20549;50.042;8.968;2022-09-12T10:16:20;34.10;39.60
30999;DHT22;20549;50.042;8.968;2022-09-12T10:18:46;33.70;39.90
30999;DHT22;20549;50.042;8.968;2022-09-12T10:23:50;33.30;40.40
30999;DHT22;20549;50.042;8.968;2022-09-12T10:26:15;33.10;40.50
30999;DHT22;20549;50.042;8.968;2022-09-12T10:28:51;32.90;40.60
30999;DHT22;20549;50.042;8.968;2022-09-12T10:31:14;32.70;40.90
30999;DHT22;20549;50.042;8.968;2022-09-12T10:33:41;32.50;41.10
30999;DHT22;20549;50.042;8.968;2022-09-12T10:36:06;32.40;41.50
30999;DHT22;20549;50.042;8.968;2022-09-12T10:38:33;32.30;41.60
30999;DHT22;20549;50.042;8.968;2022-09-12T10:41:02;32.20;41.80
30999;DHT22;20549;50.042;8.968;2022-09-12T10:43:28;32.10;42.00
30999;DHT22;20549;50.042;8.968;2022-09-12T10:45:56;31.90;42.00
30999;DHT22;20549;50.042;8.968;2022-09-12T10:48:31;31.80;42.10
30999;DHT22;20549;50.042;8.968;2022-09-12T10:51:01;31.70;42.30
30999;DHT22;20549;50.042;8.968;2022-09-12T10:53:43;31.60;42.30
30999;DHT22;20549;50.042;8.968;2022-09-12T10:56:18;31.50;42.00
30999;DHT22;20549;50.042;8.968;2022-09-12T10:58:48;31.40;42.20
30999;DHT22;20549;50.042;8.968;2022-09-12T11:06:37;31.00;42.90
30999;DHT22;20549;50.042;8.968;2022-09-12T11:09:12;30.90;43.10
30999;DHT22;20549;50.042;8.968;2022-09-12T11:11:45;30.80;43.30
30999;DHT22;20549;50.042;8.968;2022-09-12T11:16:53;30.70;43.20
30999;DHT22;20549;50.042;8.968;2022-09-12T11:22:23;30.70;43.50
30999;DHT22;20549;50.042;8.968;2022-09-12T11:28:29;30.70;43.50
30999;DHT22;20549;50.042;8.968;2022-09-12T11:30:15;30.70;43.90
30999;DHT22;20549;50.042;8.968;2022-09-12T11:32:54;30.80;43.90
30999;DHT22;20549;50.042;8.968;2022-09-12T11:35:29;30.80;44.10
30999;DHT22;20549;50.042;8.968;2022-09-12T11:38:13;30.80;43.30
30999;DHT22;20549;50.042;8.968;2022-09-12T11:41:02;30.80;43.00
30999;DHT22;20549;50.042;8.968;2022-09-12T11:43:19;30.70;42.90
30999;DHT22;20549;50.042;8.968;2022-09-12T11:45:42;30.70;43.00
30999;DHT22;20549;50.042;8.968;2022-09-12T11:48:11;30.60;43.10
30999;DHT22;20549;50.042;8.968;2022-09-12T11:50:34;30.60;43.00
30999;DHT22;20549;50.042;8.968;2022-09-12T11:53:15;30.50;43.00
30999;DHT22;20549;50.042;8.968;2022-09-12T11:56:09;30.60;43.20
30999;DHT22;20549;50.042;8.968;2022-09-12T11:58:30;30.60;43.20
30999;DHT22;20549;50.042;8.968;2022-09-12T12:01:09;30.60;42.80
30999;DHT22;20549;50.042;8.968;2022-09-12T12:03:36;30.70;42.50
30999;DHT22;20549;50.042;8.968;2022-09-12T12:08:26;30.60;42.30
30999;DHT22;20549;50.042;8.968;2022-09-12T12:10:58;30.60;42.20
30999;DHT22;20549;50.042;8.968;2022-09-12T12:13:40;30.60;42.10
30999;DHT22;20549;50.042;8.968;2022-09-12T12:16:06;30.50;41.90
30999;DHT22;20549;50.042;8.968;2022-09-12T12:18:32;30.50;41.80
30999;DHT22;20549;50.042;8.968;2022-09-12T12:21:33;30.40;41.70
30999;DHT22;20549;50.042;8.968;2022-09-12T12:29:50;30.10;41.60
30999;DHT22;20549;50.042;8.968;2022-09-12T12:31:31;30.00;41.80
30999;DHT22;20549;50.042;8.968;2022-09-12T12:34:01;29.90;41.70
30999;DHT22;20549;50.042;8.968;2022-09-12T12:36:36;29.90;41.60
30999;DHT22;20549;50.042;8.968;2022-09-12T12:44:22;29.60;41.40
30999;DHT22;20549;50.042;8.968;2022-09-12T12:46:28;29.50;41.30
30999;DHT22;20549;50.042;8.968;2022-09-12T13:02:21;29.10;41.70
30999;DHT22;20549;50.042;8.968;2022-09-12T13:04:46;29.00;41.90
30999;DHT22;20549;50.042;8.968;2022-09-12T13:07:17;28.90;41.90
30999;DHT22;20549;50.042;8.968;2022-09-12T13:09:46;28.80;42.00
30999;DHT22;20549;50.042;8.968;2022-09-12T13:12:19;28.80;42.10
30999;DHT22;20549;50.042;8.968;2022-09-12T13:14:49;28.70;42.10
30999;DHT22;20549;50.042;8.968;2022-09-12T13:17:27;28.60;42.10
30999;DHT22;20549;50.042;8.968;2022-09-12T13:22:41;28.50;42.30
30999;DHT22;20549;50.042;8.968;2022-09-12T13:25:31;28.40;42.30
30999;DHT22;20549;50.042;8.968;2022-09-12T13:30:22;28.30;42.60
30999;DHT22;20549;50.042;8.968;2022-09-12T13:32:49;28.30;42.60
30999;DHT22;20549;50.042;8.968;2022-09-12T13:35:28;28.30;42.60
30999;DHT22;20549;50.042;8.968;2022-09-12T13:37:55;28.20;42.70
30999;DHT22;20549;50.042;8.968;2022-09-12T13:40:30;28.20;42.60
30999;DHT22;20549;50.042;8.968;2022-09-12T13:43:08;28.20;42.70
30999;DHT22;20549;50.042;8.968;2022-09-12T13:45:36;28.10;42.60
30999;DHT22;20549;50.042;8.968;2022-09-12T13:48:03;28.10;42.90
30999;DHT22;20549;50.042;8.968;2022-09-12T13:50:31;28.10;43.10
30999;DHT22;20549;50.042;8.968;2022-09-12T13:53:04;28.10;43.20
30999;DHT22;20549;50.042;8.968;2022-09-12T13:55:30;28.00;43.40
30999;DHT22;20549;50.042;8.968;2022-09-12T13:58:18;28.10;43.40
30999;DHT22;20549;50.042;8.968;2022-09-12T14:00:22;28.10;43.40
30999;DHT22;20549;50.042;8.968;2022-09-12T14:02:49;28.10;43.20
30999;DHT22;20549;50.042;8.968;2022-09-12T14:05:19;28.10;43.50
30999;DHT22;20549;50.042;8.968;2022-09-12T14:07:48;28.10;43.60
30999;DHT22;20549;50.042;8.968;2022-09-12T14:10:13;28.10;43.50
30999;DHT22;20549;50.042;8.968;2022-09-12T14:12:38;28.10;43.50
30999;DHT22;20549;50.042;8.968;2022-09-12T14:15:04;28.10;43.60
30999;DHT22;20549;50.042;8.968;2022-09-12T14:17:34;28.10;43.70
30999;DHT22;20549;50.042;8.968;2022-09-12T14:20:02;28.10;43.60
30999;DHT22;20549;50.042;8.968;2022-09-12T14:22:27;28.10;43.70
30999;DHT22;20549;50.042;8.968;2022-09-12T14:24:54;28.10;43.80
30999;DHT22;20549;50.042;8.968;2022-09-12T14:27:26;28.00;43.90
30999;DHT22;20549;50.042;8.968;2022-09-12T14:29:49;28.00;43.80
30999;DHT22;20549;50.042;8.968;2022-09-12T14:32:21;28.00;43.70
30999;DHT22;20549;50.042;8.968;2022-09-12T14:37:30;27.90;43.60
30999;DHT22;20549;50.042;8.968;2022-09-12T14:39:57;27.90;43.70
30999;DHT22;20549;50.042;8.968;2022-09-12T14:42:25;27.80;43.90
30999;DHT22;20549;50.042;8.968;2022-09-12T14:44:54;27.80;43.80
30999;DHT22;20549;50.042;8.968;2022-09-12T14:47:20;27.80;43.90
30999;DHT22;20549;50.042;8.968;2022-09-12T14:49:46;27.70;44.00
30999;DHT22;20549;50.042;8.968;2022-09-12T14:55:02;27.70;44.00
30999;DHT22;20549;50.042;8.968;2022-09-12T14:57:31;27.60;44.00
30999;DHT22;20549;50.042;8.968;2022-09-12T15:02:43;27.50;44.20
30999;DHT22;20549;50.042;8.968;2022-09-12T15:07:34;27.50;44.70
30999;DHT22;20549;50.042;8.968;2022-09-12T15:10:05;27.40;44.70
30999;DHT22;20549;50.042;8.968;2022-09-12T15:12:30;27.40;44.80
30999;DHT22;20549;50.042;8.968;2022-09-12T15:15:11;27.40;44.80
30999;DHT22;20549;50.042;8.968;2022-09-12T15:17:26;27.30;44.80
30999;DHT22;20549;50.042;8.968;2022-09-12T15:19:53;27.30;45.00
30999;DHT22;20549;50.042;8.968;2022-09-12T15:22:20;27.30;45.20
30999;DHT22;20549;50.042;8.968;2022-09-12T15:24:46;27.20;45.40
30999;DHT22;20549;50.042;8.968;2022-09-12T15:27:13;27.20;45.40
30999;DHT22;20549;50.042;8.968;2022-09-12T15:29:39;27.20;45.50
30999;DHT22;20549;50.042;8.968;2022-09-12T15:32:08;27.10;45.40
30999;DHT22;20549;50.042;8.968;2022-09-12T15:34:33;27.10;45.50
30999;DHT22;20549;50.042;8.968;2022-09-12T15:36:59;27.00;45.70
30999;DHT22;20549;50.042;8.968;2022-09-12T15:39:26;27.00;45.80
30999;DHT22;20549;50.042;8.968;2022-09-12T15:41:52;27.00;46.00
30999;DHT22;20549;50.042;8.968;2022-09-12T15:44:19;26.90;46.00
30999;DHT22;20549;50.042;8.968;2022-09-12T15:46:46;26.90;46.10
30999;DHT22;20549;50.042;8.968;2022-09-12T15:49:12;26.80;46.20
30999;DHT22;20549;50.042;8.968;2022-09-12T15:51:39;26.80;46.30
30999;DHT22;20549;50.042;8.968;2022-09-12T15:54:05;26.80;46.40
30999;DHT22;20549;50.042;8.968;2022-09-12T15:56:32;26.70;46.40
30999;DHT22;20549;50.042;8.968;2022-09-12T15:58:59;26.70;46.50
30999;DHT22;20549;50.042;8.968;2022-09-12T16:01:26;26.60;46.60
30999;DHT22;20549;50.042;8.968;2022-09-12T16:03:52;26.60;46.60
30999;DHT22;20549;50.042;8.968;2022-09-12T16:06:18;26.60;46.70
30999;DHT22;20549;50.042;8.968;2022-09-12T16:08:45;26.50;46.70
30999;DHT22;20549;50.042;8.968;2022-09-12T16:11:19;26.50;46.70
30999;DHT22;20549;50.042;8.968;2022-09-12T16:13:44;26.50;46.80
30999;DHT22;20549;50.042;8.968;2022-09-12T16:16:10;26.40;46.80
30999;DHT22;20549;50.042;8.968;2022-09-12T16:18:40;26.40;46.90
30999;DHT22;20549;50.042;8.968;2022-09-12T16:21:07;26.40;47.00
30999;DHT22;20549;50.042;8.968;2022-09-12T16:23:33;26.40;47.00
30999;DHT22;20549;50.042;8.968;2022-09-12T16:26:03;26.30;47.00
30999;DHT22;20549;50.042;8.968;2022-09-12T16:28:29;26.30;47.20
30999;DHT22;20549;50.042;8.968;2022-09-12T16:30:56;26.20;47.20
30999;DHT22;20549;50.042;8.968;2022-09-12T16:33:22;26.20;47.30
30999;DHT22;20549;50.042;8.968;2022-09-12T16:35:49;26.20;47.30
30999;DHT22;20549;50.042;8.968;2022-09-12T16:38:16;26.10;47.20
30999;DHT22;20549;50.042;8.968;2022-09-12T16:40:42;26.10;47.50
30999;DHT22;20549;50.042;8.968;2022-09-12T16:43:08;26.00;47.30
30999;DHT22;20549;50.042;8.968;2022-09-12T16:45:35;26.00;47.30
30999;DHT22;20549;50.042;8.968;2022-09-12T16:48:02;25.90;47.30
30999;DHT22;20549;50.042;8.968;2022-09-12T16:50:28;25.90;47.40
30999;DHT22;20549;50.042;8.968;2022-09-12T16:52:55;25.80;47.40
30999;DHT22;20549;50.042;8.968;2022-09-12T16:55:21;25.80;47.50
30999;DHT22;20549;50.042;8.968;2022-09-12T16:57:48;25.70;47.50
30999;DHT22;20549;50.042;8.968;2022-09-12T17:00:15;25.60;47.60
30999;DHT22;20549;50.042;8.968;2022-09-12T17:02:41;25.60;47.70
30999;DHT22;20549;50.042;8.968;2022-09-12T17:05:08;25.50;47.80
30999;DHT22;20549;50.042;8.968;2022-09-12T17:07:34;25.40;47.90
30999;DHT22;20549;50.042;8.968;2022-09-12T17:10:01;25.40;48.00
30999;DHT22;20549;50.042;8.968;2022-09-12T17:12:28;25.30;48.10
30999;DHT22;20549;50.042;8.968;2022-09-12T17:14:54;25.20;48.20
30999;DHT22;20549;50.042;8.968;2022-09-12T17:17:21;25.20;48.30
30999;DHT22;20549;50.042;8.968;2022-09-12T17:19:49;25.10;48.40
30999;DHT22;20549;50.042;8.968;2022-09-12T17:22:15;25.00;48.50
30999;DHT22;20549;50.042;8.968;2022-09-12T17:24:42;24.90;48.60
30999;DHT22;20549;50.042;8.968;2022-09-12T17:27:08;24.80;48.70
30999;DHT22;20549;50.042;8.968;2022-09-12T17:29:35;24.70;48.80
30999;DHT22;20549;50.042;8.968;2022-09-12T17:32:02;24.60;49.00